Time;durP1;ratioP1;P1;durP2;ratioP2;P2;SDS_P1;SDS_P2;PMS_P1;PMS_P2;Temp;Humidity;BMP_temperature;BMP_pressure;BME280_temperature;BME280_humidity;BME280_pressure;Samples;Min_cycle;Max_cycle;Signal;HPM_P1;HPM_P2
2022/06/18 00:01:33;;;;;;;6.75;3.35;;;;;;;21.30;78.07;101615.34;5068686;28;20542;-51
2022/06/18 00:04:03;;;;;;;6.13;3.05;;;;;;;21.23;78.65;101614.25;5070542;28;20135;-47
2022/06/18 00:06:34;;;;;;;6.68;3.25;;;;;;;21.17;79.62;101621.03;5069388;28;20487;-50
2022/06/18 00:09:02;;;;;;;8.82;3.20;;;;;;;21.14;79.24;101624.00;5071653;28;20372;-50
2022/06/18 00:14:20;;;;;;;8.73;3.25;;;;;;;21.07;79.48;101613.06;5054769;28;20052;-51
2022/06/18 00:16:48;;;;;;;6.93;3.13;;;;;;;21.03;79.42;101614.38;5071505;28;20086;-50
2022/06/18 00:19:16;;;;;;;6.05;3.13;;;;;;;20.98;80.33;101615.81;5068949;28;20045;-52
2022/06/18 00:21:44;;;;;;;6.35;3.10;;;;;;;20.97;80.17;101614.13;5069893;28;20143;-49
2022/06/18 00:24:16;;;;;;;8.63;3.40;;;;;;;20.95;80.53;101616.94;5070856;28;20154;-51
2022/06/18 00:26:46;;;;;;;6.07;3.25;;;;;;;20.92;80.22;101635.97;5072538;28;20055;-51
2022/06/18 00:29:18;;;;;;;6.38;2.83;;;;;;;20.91;80.39;101620.91;5068610;28;20036;-48
2022/06/18 00:31:47;;;;;;;7.10;2.97;;;;;;;20.87;81.01;101620.38;5069390;28;20049;-51
2022/06/18 00:34:15;;;;;;;6.00;2.97;;;;;;;20.82;81.02;101620.00;5071294;28;20032;-50
2022/06/18 00:36:44;;;;;;;5.28;2.58;;;;;;;20.74;82.28;101620.72;5070024;28;20037;-48
2022/06/18 00:39:15;;;;;;;7.55;3.42;;;;;;;20.71;82.99;101618.34;5071192;28;20139;-47
2022/06/18 00:41:48;;;;;;;6.57;3.28;;;;;;;20.63;83.82;101614.69;5070173;28;20074;-52
2022/06/18 00:44:24;;;;;;;6.07;3.17;;;;;;;20.57;84.01;101613.44;5066460;28;20060;-51
2022/06/18 00:47:03;;;;;;;9.60;3.20;;;;;;;20.56;83.26;101612.63;5067894;28;20091;-46
2022/06/18 00:49:38;;;;;;;6.65;3.08;;;;;;;20.51;82.43;101614.88;5069116;28;20094;-49
2022/06/18 00:52:13;;;;;;;6.10;3.15;;;;;;;20.51;83.18;101616.72;5068767;28;20049;-50
2022/06/18 00:54:47;;;;;;;6.93;2.90;;;;;;;20.46;82.69;101613.66;5064444;28;20044;-47
2022/06/18 00:57:21;;;;;;;7.18;3.50;;;;;;;20.43;82.88;101607.59;5066866;28;20052;-50
2022/06/18 00:59:54;;;;;;;6.50;3.47;;;;;;;20.40;82.76;101613.22;5067708;28;20434;-48
2022/06/18 01:02:29;;;;;;;7.28;3.42;;;;;;;20.33;83.58;101601.47;5071655;28;20082;-47
2022/06/18 01:04:57;;;;;;;7.43;3.15;;;;;;;20.29;83.61;101600.06;5067782;28;20068;-47
2022/06/18 01:07:29;;;;;;;6.22;3.30;;;;;;;20.26;83.80;101600.38;5070913;28;20075;-48
2022/06/18 01:09:59;;;;;;;5.35;3.03;;;;;;;20.21;83.98;101600.78;5068082;28;21526;-52
2022/06/18 01:12:30;;;;;;;8.70;3.58;;;;;;;20.19;84.64;101608.13;5069988;28;20391;-50
2022/06/18 01:15:02;;;;;;;7.80;3.63;;;;;;;20.16;84.68;101600.38;5067626;28;20132;-48
2022/06/18 01:17:31;;;;;;;7.70;3.50;;;;;;;20.11;84.28;101605.31;5069449;28;20041;-48
2022/06/18 01:20:00;;;;;;;7.28;3.50;;;;;;;20.08;85.00;101601.13;5066812;28;20028;-52
2022/06/18 01:22:35;;;;;;;13.73;4.00;;;;;;;19.98;85.74;101596.78;5066391;28;20048;-49
2022/06/18 01:25:07;;;;;;;7.57;3.50;;;;;;;19.97;86.21;101587.91;5068914;28;20033;-48
2022/06/18 01:27:36;;;;;;;7.95;3.55;;;;;;;19.93;86.31;101589.19;5069282;28;20028;-50
2022/06/18 01:30:06;;;;;;;5.70;3.38;;;;;;;19.93;86.78;101591.84;5062330;28;20093;-51
2022/06/18 01:32:35;;;;;;;6.35;3.25;;;;;;;19.90;86.65;101589.47;5067430;28;20483;-49
2022/06/18 01:35:05;;;;;;;5.93;3.47;;;;;;;19.91;86.15;101585.81;5067587;28;20041;-50
2022/06/18 01:37:33;;;;;;;6.60;3.63;;;;;;;19.85;86.37;101584.56;5067470;28;20488;-51
2022/06/18 01:40:02;;;;;;;7.10;3.40;;;;;;;19.86;86.11;101580.06;5066096;28;20120;-49
2022/06/18 01:42:38;;;;;;;7.15;3.42;;;;;;;19.82;86.64;101579.50;5068642;28;20060;-48
2022/06/18 01:45:11;;;;;;;7.28;4.30;;;;;;;19.81;86.53;101574.31;5064879;28;20076;-49
2022/06/18 01:47:41;;;;;;;7.20;3.90;;;;;;;19.78;86.75;101578.06;5061330;28;20052;-47
2022/06/18 01:50:15;;;;;;;7.38;4.55;;;;;;;19.78;86.47;101570.06;5068872;28;20040;-47
2022/06/18 01:52:55;;;;;;;7.15;3.55;;;;;;;19.71;87.04;101575.13;5075163;28;20049;-52
2022/06/18 01:55:28;;;;;;;9.10;3.90;;;;;;;19.68;87.91;101566.59;5066387;28;20044;-48
2022/06/18 01:58:02;;;;;;;7.50;3.85;;;;;;;19.64;87.71;101566.03;5069801;28;20055;-50
2022/06/18 02:00:31;;;;;;;7.50;4.03;;;;;;;19.62;87.88;101565.34;5067629;28;20051;-48
2022/06/18 02:03:01;;;;;;;8.27;3.95;;;;;;;19.58;88.13;101563.94;5068391;28;20036;-51
2022/06/18 02:05:30;;;;;;;6.75;4.00;;;;;;;19.53;88.80;101560.84;5071227;28;20131;-50
2022/06/18 02:08:00;;;;;;;8.23;4.35;;;;;;;19.52;89.11;101554.66;5071220;28;20113;-49
2022/06/18 02:10:32;;;;;;;7.47;4.13;;;;;;;19.51;89.01;101560.13;5069995;28;20102;-49
2022/06/18 02:13:04;;;;;;;10.45;4.45;;;;;;;19.49;88.48;101559.44;5071525;28;20048;-51
2022/06/18 02:15:34;;;;;;;;;;;;;;;19.53;88.39;101552.84;5071551;28;20040;-50
2022/06/18 02:18:06;;;;;;;7.93;4.65;;;;;;;19.54;88.33;101551.88;5067840;28;20027;-50
2022/06/18 02:20:40;;;;;;;9.50;4.82;;;;;;;19.51;88.83;101549.47;5069564;28;20043;-48
2022/06/18 02:23:09;;;;;;;6.80;4.03;;;;;;;19.48;88.18;101550.59;5069451;28;20045;-51
2022/06/18 02:25:37;;;;;;;7.50;4.72;;;;;;;19.45;89.15;101550.88;5070328;28;20483;-50
2022/06/18 02:28:13;;;;;;;10.98;4.93;;;;;;;19.39;89.82;101548.78;5070792;28;20049;-47
2022/06/18 02:30:41;;;;;;;8.95;4.93;;;;;;;19.37;89.96;101548.94;5066620;28;20483;-49
2022/06/18 02:33:18;;;;;;;8.00;4.63;;;;;;;19.34;89.53;101546.53;5066409;28;20056;-48
2022/06/18 02:35:47;;;;;;;10.73;5.25;;;;;;;19.31;90.11;101546.81;5070079;28;20101;-47
2022/06/18 02:38:21;;;;;;;10.55;5.13;;;;;;;19.28;90.87;101557.75;5070641;28;20166;-47
2022/06/18 02:40:49;;;;;;;8.30;4.63;;;;;;;19.26;90.80;101562.38;5070913;28;20066;-46
2022/06/18 02:43:22;;;;;;;7.90;5.10;;;;;;;19.23;90.66;101565.34;5069185;28;20044;-50
2022/06/18 02:45:53;;;;;;;9.57;5.22;;;;;;;19.23;90.54;101558.16;5070780;28;20059;-51
2022/06/18 02:48:26;;;;;;;8.50;5.35;;;;;;;19.19;91.34;101570.09;5069838;28;20051;-47
2022/06/18 02:50:56;;;;;;;;;;;;;;;19.16;91.48;101562.38;5067811;28;20066;-48
2022/06/18 02:53:25;;;;;;;8.18;5.60;;;;;;;19.16;91.50;101566.88;5070647;28;20386;-48
2022/06/18 02:55:56;;;;;;;10.68;5.20;;;;;;;19.13;92.69;101560.00;5071047;28;20036;-48
2022/06/18 02:58:30;;;;;;;9.75;5.78;;;;;;;19.08;92.65;101567.56;5070383;28;20047;-52
2022/06/18 03:01:00;;;;;;;12.43;5.97;;;;;;;19.09;92.08;101566.59;5068311;28;20044;-52
2022/06/18 03:03:31;;;;;;;10.20;5.63;;;;;;;19.09;92.52;101562.09;5066020;28;20106;-51
2022/06/18 03:05:59;;;;;;;7.22;5.20;;;;;;;19.07;92.59;101565.88;5068185;28;20499;-48
2022/06/18 03:08:30;;;;;;;9.43;5.50;;;;;;;19.11;92.42;101563.78;5070048;28;20052;-51
2022/06/18 03:13:47;;;;;;;10.32;6.07;;;;;;;19.04;92.99;101566.16;5069438;28;20135;-47
2022/06/18 03:16:19;;;;;;;9.50;5.65;;;;;;;19.02;93.01;101570.75;5070221;28;20033;-48
2022/06/18 03:18:47;;;;;;;12.40;5.70;;;;;;;19.01;92.84;101569.94;5067590;28;20432;-48
2022/06/18 03:21:21;;;;;;;9.00;5.57;;;;;;;19.00;93.24;101572.75;5066716;28;20642;-52
2022/06/18 03:23:49;;;;;;;11.43;5.93;;;;;;;18.97;93.23;101573.03;5070173;28;20040;-49
2022/06/18 03:26:19;;;;;;;10.63;6.05;;;;;;;18.97;92.91;101565.03;5070159;28;20056;-51
2022/06/18 03:28:48;;;;;;;8.50;5.78;;;;;;;18.99;93.54;101571.91;5067735;28;20082;-48
2022/06/18 03:31:16;;;;;;;12.07;5.85;;;;;;;19.00;93.16;101565.56;5065241;28;20491;-49
2022/06/18 03:33:46;;;;;;;10.93;6.63;;;;;;;19.00;93.30;101576.22;5069500;28;20383;-49
2022/06/18 03:36:17;;;;;;;10.38;6.07;;;;;;;18.98;93.96;101572.88;5067162;28;20044;-50
2022/06/18 03:38:46;;;;;;;11.02;5.90;;;;;;;18.96;94.09;101576.66;5067306;28;20526;-49
2022/06/18 03:41:15;;;;;;;11.13;6.28;;;;;;;18.97;94.22;101571.19;5069496;28;20070;-48
2022/06/18 03:43:43;;;;;;;10.80;6.18;;;;;;;18.96;94.07;101574.81;5070144;28;20538;-51
2022/06/18 03:46:18;;;;;;;10.30;5.75;;;;;;;18.96;94.45;101574.81;5064542;28;20052;-52
2022/06/18 03:48:50;;;;;;;12.32;6.25;;;;;;;18.94;94.99;101568.81;5066695;28;20060;-49
2022/06/18 03:51:19;;;;;;;10.30;5.97;;;;;;;18.96;95.01;101579.31;5068600;28;20032;-46
2022/06/18 03:53:47;;;;;;;9.60;6.43;;;;;;;18.94;96.46;101574.13;5067067;28;20048;-47
2022/06/18 03:56:18;;;;;;;8.18;6.07;;;;;;;18.93;95.94;101572.44;5071499;28;20040;-49
2022/06/18 03:58:47;;;;;;;8.50;5.90;;;;;;;18.94;95.95;101575.94;5073776;28;20110;-53
2022/06/18 04:01:20;;;;;;;10.63;6.07;;;;;;;18.95;96.07;101575.81;5073538;28;20110;-47
2022/06/18 04:03:49;;;;;;;9.32;6.00;;;;;;;18.97;96.02;101576.53;5073747;28;20499;-49
2022/06/18 04:06:17;;;;;;;9.48;6.28;;;;;;;18.99;96.59;101569.25;5073305;28;20076;-48
2022/06/18 04:08:47;;;;;;;11.18;6.45;;;;;;;19.00;96.88;101570.91;5071542;28;20040;-50
2022/06/18 04:11:15;;;;;;;12.10;6.45;;;;;;;19.02;96.57;101568.97;5073852;28;20120;-50
2022/06/18 04:13:43;;;;;;;11.95;6.80;;;;;;;19.05;96.77;101571.34;5068302;28;20056;-51
2022/06/18 04:16:11;;;;;;;12.07;6.80;;;;;;;19.08;96.71;101568.38;5072925;28;20127;-49
2022/06/18 04:18:41;;;;;;;11.30;6.65;;;;;;;19.12;96.59;101568.97;5073188;28;20484;-48
2022/06/18 04:21:10;;;;;;;9.88;6.53;;;;;;;19.16;96.78;101575.72;5071077;28;20462;-51
2022/06/18 04:23:39;;;;;;;10.13;6.65;;;;;;;19.20;97.34;101568.28;5073032;28;20492;-51
2022/06/18 04:26:07;;;;;;;10.07;6.18;;;;;;;19.23;96.69;101574.16;5072569;28;20060;-50
2022/06/18 04:28:35;;;;;;;11.93;6.55;;;;;;;19.27;96.75;101580.06;5070990;28;20377;-53
2022/06/18 04:31:03;;;;;;;10.48;6.55;;;;;;;19.31;96.90;101578.81;5073175;28;20037;-49
2022/06/18 04:33:31;;;;;;;12.20;6.65;;;;;;;19.34;96.96;101573.19;5073280;28;20039;-49
2022/06/18 04:36:01;;;;;;;12.27;7.30;;;;;;;19.37;96.19;101578.25;5073334;28;20107;-47
2022/06/18 04:38:29;;;;;;;16.73;7.82;;;;;;;19.41;96.13;101579.66;5073072;28;21628;-47
2022/06/18 04:40:57;;;;;;;11.95;7.85;;;;;;;19.47;95.68;101578.25;5072714;28;20048;-49
2022/06/18 04:43:27;;;;;;;10.88;7.32;;;;;;;19.53;95.44;101588.34;5072278;28;20391;-49
2022/06/18 04:45:57;;;;;;;11.43;7.72;;;;;;;19.57;95.06;101581.75;5072148;28;20056;-53
2022/06/18 04:48:25;;;;;;;12.57;8.07;;;;;;;19.63;95.53;101588.34;5070785;28;20052;-49
2022/06/18 04:50:53;;;;;;;12.38;7.88;;;;;;;19.68;97.26;101587.94;5071362;28;20067;-48
2022/06/18 04:53:22;;;;;;;11.27;8.02;;;;;;;19.74;98.36;101590.88;5071910;28;20118;-51
2022/06/18 04:55:50;;;;;;;12.27;8.40;;;;;;;19.81;97.16;101593.00;5072955;28;20098;-51
2022/06/18 04:58:18;;;;;;;13.20;8.75;;;;;;;19.87;97.60;101590.59;5072427;28;20507;-48
2022/06/18 05:00:46;;;;;;;12.70;8.50;;;;;;;19.93;96.34;101589.19;5072236;28;20040;-49
2022/06/18 05:03:17;;;;;;;17.15;8.88;;;;;;;19.99;96.37;101591.28;5071969;28;20099;-49
2022/06/18 05:05:45;;;;;;;12.85;8.75;;;;;;;20.06;95.75;101592.38;5072248;28;20036;-49
2022/06/18 05:08:13;;;;;;;14.05;8.88;;;;;;;20.13;95.90;101592.66;5069618;28;20041;-51
2022/06/18 05:10:44;;;;;;;13.27;8.77;;;;;;;20.20;93.96;101590.25;5072262;28;20372;-49
2022/06/18 05:13:13;;;;;;;13.80;8.63;;;;;;;20.27;93.95;101589.53;5071723;28;20048;-48
2022/06/18 05:15:42;;;;;;;17.35;10.35;;;;;;;20.36;91.16;101585.13;5071970;28;20051;-49
2022/06/18 05:18:14;;;;;;;14.25;9.68;;;;;;;20.44;90.77;101577.22;5071709;28;20163;-52
2022/06/18 05:20:42;;;;;;;13.80;9.37;;;;;;;20.52;92.32;101581.84;5070494;28;20506;-48
2022/06/18 05:23:14;;;;;;;14.25;9.98;;;;;;;20.59;90.18;101579.44;5071541;28;20499;-49
2022/06/18 05:25:44;;;;;;;15.73;9.65;;;;;;;20.68;90.62;101586.59;5070491;28;20055;-52
2022/06/18 05:28:14;;;;;;;13.73;9.77;;;;;;;20.74;91.48;101583.31;5072026;28;20052;-52
2022/06/18 05:30:42;;;;;;;12.77;9.85;;;;;;;20.85;89.77;101574.25;5069088;28;20049;-51
2022/06/18 05:33:10;;;;;;;14.60;9.80;;;;;;;20.90;88.46;101581.81;5071705;28;20491;-51
2022/06/18 05:35:41;;;;;;;15.98;10.75;;;;;;;21.00;90.05;101579.91;5071258;28;20045;-52
2022/06/18 05:38:15;;;;;;;13.70;9.75;;;;;;;21.04;86.93;101573.28;5069539;28;20537;-49
2022/06/18 05:40:44;;;;;;;15.48;10.40;;;;;;;21.15;86.87;101574.06;5070861;28;21462;-50
2022/06/18 05:43:12;;;;;;;17.80;10.82;;;;;;;21.23;86.07;101574.97;5066745;28;20449;-48
2022/06/18 05:45:42;;;;;;;14.93;10.10;;;;;;;21.34;85.15;101571.22;5071549;28;20048;-51
2022/06/18 05:48:12;;;;;;;17.52;9.88;;;;;;;21.40;85.52;101570.59;5072514;28;20055;-50
2022/06/18 05:50:40;;;;;;;13.98;9.38;;;;;;;21.53;84.69;101578.28;5071436;28;20044;-51
2022/06/18 05:53:08;;;;;;;14.23;9.10;;;;;;;21.63;84.90;101572.00;5072444;28;20056;-50
2022/06/18 05:55:36;;;;;;;17.35;10.18;;;;;;;21.69;84.23;101572.22;5072422;28;20500;-51
2022/06/18 05:58:05;;;;;;;14.80;9.75;;;;;;;21.78;83.13;101570.44;5072512;28;20106;-51
2022/06/18 06:00:33;;;;;;;14.73;9.93;;;;;;;21.89;83.51;101580.88;5072416;28;20072;-46
2022/06/18 06:03:01;;;;;;;12.70;8.20;;;;;;;22.01;84.21;101578.81;5072129;28;20049;-50
2022/06/18 06:05:30;;;;;;;12.20;8.35;;;;;;;22.13;82.71;101579.38;5072318;28;20053;-48
2022/06/18 06:07:58;;;;;;;14.55;9.15;;;;;;;22.26;82.88;101578.94;5072058;28;20048;-51
2022/06/18 06:13:15;;;;;;;13.07;9.63;;;;;;;22.48;80.68;101571.38;5071853;28;20097;-48
2022/06/18 06:15:44;;;;;;;15.15;8.20;;;;;;;22.59;80.73;101573.75;5067091;28;20044;-53
2022/06/18 06:18:14;;;;;;;16.00;9.00;;;;;;;22.68;81.20;101571.97;5063815;28;20395;-52
2022/06/18 06:20:45;;;;;;;11.82;8.68;;;;;;;22.77;80.48;101582.56;5058986;28;20036;-52
2022/06/18 06:23:14;;;;;;;14.20;7.72;;;;;;;22.90;78.72;101571.34;5058789;28;20094;-53
2022/06/18 06:25:43;;;;;;;13.82;8.38;;;;;;;22.94;76.32;101578.06;5062264;28;20037;-52
2022/06/18 06:28:14;;;;;;;15.55;8.55;;;;;;;23.05;76.74;101576.91;5069419;28;20124;-52
2022/06/18 06:30:43;;;;;;;17.52;8.70;;;;;;;23.23;76.23;101581.34;5068262;28;20028;-50
2022/06/18 06:33:11;;;;;;;14.05;7.18;;;;;;;23.36;77.53;101580.88;5062877;28;20045;-48
2022/06/18 06:35:40;;;;;;;17.35;8.45;;;;;;;23.46;76.08;101576.16;5066170;28;20037;-50
2022/06/18 06:38:09;;;;;;;12.77;8.15;;;;;;;23.59;75.08;101589.09;5069732;28;20060;-52
2022/06/18 06:40:37;;;;;;;15.27;8.13;;;;;;;23.72;74.78;101585.88;5052398;28;20438;-52
2022/06/18 06:43:07;;;;;;;17.42;7.88;;;;;;;23.85;73.24;101588.91;5064576;28;20396;-50
2022/06/18 06:45:35;;;;;;;13.88;7.55;;;;;;;23.99;73.50;101587.38;5059013;28;20052;-48
2022/06/18 06:48:06;;;;;;;15.05;8.30;;;;;;;24.12;72.83;101592.25;5054934;28;20508;-49
2022/06/18 06:50:34;;;;;;;15.35;8.88;;;;;;;24.22;71.88;101592.88;5063187;28;20063;-51
2022/06/18 06:53:02;;;;;;;22.13;8.70;;;;;;;24.23;71.83;101593.72;5058145;28;20048;-52
2022/06/18 06:58:19;;;;;;;14.57;8.00;;;;;;;24.49;70.49;101593.47;5052105;28;20510;-51
2022/06/18 07:00:50;;;;;;;11.98;8.73;;;;;;;24.48;68.89;101589.94;5052320;28;20049;-52
2022/06/18 07:03:24;;;;;;;16.73;8.10;;;;;;;24.68;70.65;101602.16;5056939;28;20063;-52
2022/06/18 07:05:52;;;;;;;11.63;7.43;;;;;;;24.75;69.25;101598.59;5059945;28;20117;-51
2022/06/18 07:08:20;;;;;;;15.82;8.40;;;;;;;24.85;68.71;101601.06;5066119;28;20058;-50
2022/06/18 07:10:50;;;;;;;16.80;7.18;;;;;;;25.04;68.47;101605.16;5069059;28;20063;-52
2022/06/18 07:13:19;;;;;;;14.35;7.97;;;;;;;25.25;70.13;101603.66;5060367;28;20415;-48
2022/06/18 07:15:48;;;;;;;15.65;7.75;;;;;;;25.35;67.11;101596.25;5046382;28;20087;-49
2022/06/18 07:18:22;;;;;;;18.80;8.55;;;;;;;25.52;66.51;101596.13;5053640;28;20044;-51
2022/06/18 07:20:50;;;;;;;16.73;8.38;;;;;;;25.58;66.82;101598.09;5060947;28;20094;-48
2022/06/18 07:23:19;;;;;;;13.35;7.78;;;;;;;25.65;64.98;101599.03;5068226;28;20726;-50
2022/06/18 07:25:47;;;;;;;13.68;7.88;;;;;;;25.91;65.05;101601.31;5057198;28;20062;-47
2022/06/18 07:28:16;;;;;;;12.50;8.48;;;;;;;26.07;65.38;101603.03;5055893;28;20072;-46
2022/06/18 07:30:46;;;;;;;15.55;8.93;;;;;;;26.11;64.04;101607.03;5060781;28;20467;-47
2022/06/18 07:33:17;;;;;;;14.00;8.43;;;;;;;26.18;63.50;101601.75;5055448;28;20095;-49
2022/06/18 07:35:46;;;;;;;15.23;7.70;;;;;;;26.36;63.40;101600.56;5055861;28;20512;-48
2022/06/18 07:38:14;;;;;;;16.02;8.65;;;;;;;26.53;61.99;101602.00;5054921;28;20083;-51
2022/06/18 07:40:46;;;;;;;15.98;8.55;;;;;;;26.56;62.04;101607.03;5051000;28;20081;-46
2022/06/18 07:43:18;;;;;;;15.20;9.35;;;;;;;26.74;62.45;101603.97;5053141;28;20099;-50
2022/06/18 07:45:46;;;;;;;13.93;8.05;;;;;;;26.86;61.49;101606.16;5050224;28;20516;-48
2022/06/18 07:48:15;;;;;;;19.67;8.93;;;;;;;27.00;62.19;101599.91;5049855;28;20080;-51
2022/06/18 07:50:46;;;;;;;14.45;8.50;;;;;;;27.08;59.94;101601.66;5053668;28;20107;-51
2022/06/18 07:53:18;;;;;;;17.08;9.57;;;;;;;27.29;59.24;101601.66;5052641;28;20059;-50
2022/06/18 07:55:46;;;;;;;14.27;8.85;;;;;;;26.96;58.84;101601.31;5065911;28;20064;-54
2022/06/18 07:58:15;;;;;;;15.15;8.57;;;;;;;27.04;59.51;101593.09;5053209;28;20068;-49
2022/06/18 08:00:44;;;;;;;13.23;7.47;;;;;;;27.29;60.15;101598.13;5073758;28;20040;-51
2022/06/18 08:03:15;;;;;;;15.93;7.53;;;;;;;27.43;58.31;101594.56;5070555;28;20048;-48
2022/06/18 08:05:45;;;;;;;13.65;8.30;;;;;;;27.52;57.53;101597.94;5051827;28;20045;-52
2022/06/18 08:08:13;;;;;;;14.90;7.82;;;;;;;27.43;57.75;101589.16;5074651;28;20148;-52
2022/06/18 08:11:05;;;;;;;13.73;8.45;;;;;;;27.51;57.36;101588.16;5074684;28;20497;-51
2022/06/18 08:13:34;;;;;;;15.52;7.60;;;;;;;27.70;57.49;101589.34;5073322;28;20152;-48
2022/06/18 08:16:02;;;;;;;13.45;7.00;;;;;;;28.02;56.99;101592.53;5069944;28;20135;-50
2022/06/18 08:18:30;;;;;;;12.65;7.97;;;;;;;27.92;57.23;101589.31;5087965;28;20048;-52
2022/06/18 08:21:02;;;;;;;10.85;7.72;;;;;;;28.04;56.08;101586.94;5091812;28;20310;-51
2022/06/18 08:23:30;;;;;;;14.38;8.57;;;;;;;28.21;55.85;101579.34;5076931;28;20052;-53
2022/06/18 08:25:58;;;;;;;12.20;6.78;;;;;;;28.36;55.66;101585.47;5073616;28;20072;-51
2022/06/18 08:28:28;;;;;;;15.90;8.25;;;;;;;28.52;55.75;101586.16;5074747;28;20442;-51
2022/06/18 08:30:56;;;;;;;14.07;6.88;;;;;;;28.77;55.33;101581.91;5071451;28;20128;-51
2022/06/18 08:33:24;;;;;;;14.55;7.03;;;;;;;28.97;54.96;101583.81;5061639;28;20128;-49
2022/06/18 08:35:52;;;;;;;18.80;7.05;;;;;;;28.95;54.56;101585.91;5056899;28;20044;-52
2022/06/18 08:38:20;;;;;;;17.73;8.23;;;;;;;28.84;53.52;101581.94;5059794;28;20144;-52
2022/06/18 08:41:00;;;;;;;13.05;7.10;;;;;;;28.72;53.91;101581.66;5064246;28;20110;-48
2022/06/18 08:43:48;;;;;;;17.58;7.82;;;;;;;29.05;52.90;101583.63;5073488;28;20136;-49
2022/06/18 08:46:28;;;;;;;14.60;6.95;;;;;;;29.26;52.11;101590.78;5074329;28;20044;-52
2022/06/18 08:49:21;;;;;;;15.18;7.35;;;;;;;29.23;53.11;101591.16;5073015;28;20053;-50
2022/06/18 08:52:05;;;;;;;14.20;7.47;;;;;;;29.53;53.81;101581.84;5070366;28;20121;-48
2022/06/18 08:54:46;;;;;;;16.08;6.80;;;;;;;29.79;51.59;101580.97;5072852;28;20049;-50
2022/06/18 08:57:25;;;;;;;12.85;6.63;;;;;;;29.83;51.22;101585.78;5074121;28;20049;-51
2022/06/18 09:00:04;;;;;;;11.48;6.50;;;;;;;29.97;51.58;101585.78;5074172;28;20156;-50
2022/06/18 09:02:39;;;;;;;12.48;6.70;;;;;;;29.96;50.40;101584.13;5074509;28;20060;-52
2022/06/18 09:05:42;;;;;;;13.30;7.40;;;;;;;29.86;49.98;101583.72;5074049;28;20072;-53
2022/06/18 09:08:16;;;;;;;;;;;;;;;30.14;48.01;101586.16;5074557;28;20087;-53
2022/06/18 09:11:18;;;;;;;12.80;5.10;;;;;;;30.31;48.41;101579.22;5074036;28;19924;-50
2022/06/18 09:13:54;;;;;;;15.50;5.60;;;;;;;30.41;49.87;101570.63;5069219;28;20049;-50
2022/06/18 09:16:30;;;;;;;13.60;5.40;;;;;;;30.73;48.64;101573.41;5068993;28;20048;-50
2022/06/18 09:19:03;;;;;;;17.50;6.22;;;;;;;30.85;46.86;101566.28;5073819;28;20040;-51
2022/06/18 09:21:36;;;;;;;14.10;5.57;;;;;;;31.18;48.69;101576.13;5070724;28;20431;-50
2022/06/18 09:24:07;;;;;;;14.25;5.03;;;;;;;31.33;47.70;101575.78;5069822;28;20407;-52
2022/06/18 09:26:37;;;;;;;15.82;5.60;;;;;;;31.32;47.60;101574.13;5073596;28;20046;-52
2022/06/18 09:29:13;;;;;;;14.02;5.28;;;;;;;31.39;47.16;101565.06;5073539;28;20052;-53
2022/06/18 09:31:47;;;;;;;11.00;4.78;;;;;;;31.65;46.30;101564.06;5073693;28;20052;-53
2022/06/18 09:34:22;;;;;;;12.02;5.32;;;;;;;31.43;45.48;101564.41;5073144;28;20053;-50
2022/06/18 09:36:55;;;;;;;11.40;5.03;;;;;;;31.82;46.10;101561.56;5073385;28;20059;-52
2022/06/18 09:39:30;;;;;;;12.55;4.80;;;;;;;32.06;45.96;101559.84;5073050;28;20415;-48
2022/06/18 09:42:04;;;;;;;12.52;4.95;;;;;;;32.41;45.67;101556.53;5070391;28;20045;-52
2022/06/18 09:44:38;;;;;;;10.85;4.88;;;;;;;32.48;43.78;101564.63;5047301;28;20079;-51
2022/06/18 09:47:13;;;;;;;10.85;4.60;;;;;;;32.61;45.06;101553.53;5046819;28;20104;-47
2022/06/18 09:49:42;;;;;;;14.50;5.13;;;;;;;32.60;42.67;101559.22;5053007;28;20495;-51
2022/06/18 09:52:14;;;;;;;11.48;4.80;;;;;;;32.60;43.20;101553.78;5051222;28;20045;-51
2022/06/18 09:54:49;;;;;;;13.25;5.22;;;;;;;32.39;42.28;101553.22;5048841;28;20059;-52
2022/06/18 09:57:24;;;;;;;12.80;4.82;;;;;;;32.59;41.54;101554.84;5052331;28;20037;-52
2022/06/18 10:00:02;;;;;;;11.77;5.40;;;;;;;32.30;42.34;101549.13;5048310;28;20041;-49
2022/06/18 10:02:34;;;;;;;10.95;5.05;;;;;;;32.52;42.63;101554.94;5050124;28;20052;-50
2022/06/18 10:07:53;;;;;;;12.38;4.43;;;;;;;33.20;41.14;101558.38;5052864;28;20492;-49
2022/06/18 10:10:25;;;;;;;10.57;4.57;;;;;;;33.44;40.40;101537.44;5052821;28;20049;-51
2022/06/18 10:12:56;;;;;;;11.18;4.68;;;;;;;33.57;39.36;101541.84;5052904;28;20495;-51
2022/06/18 10:15:26;;;;;;;12.88;4.90;;;;;;;33.53;39.98;101537.91;5052571;28;20040;-47
2022/06/18 10:18:08;;;;;;;11.48;4.35;;;;;;;33.53;38.72;101540.66;5052565;28;20426;-52
2022/06/18 10:20:42;;;;;;;12.27;4.22;;;;;;;33.29;38.74;101535.16;5048028;28;20052;-49
2022/06/18 10:23:26;;;;;;;16.05;4.32;;;;;;;33.50;38.39;101535.66;5049993;28;20507;-46
2022/06/18 10:26:05;;;;;;;10.35;4.32;;;;;;;33.44;38.36;101529.25;5052644;28;20056;-51
2022/06/18 10:28:47;;;;;;;10.60;4.83;;;;;;;33.53;38.16;101533.28;5047940;28;20056;-52
2022/06/18 10:31:23;;;;;;;12.48;4.38;;;;;;;33.50;37.71;101525.59;5048016;28;20067;-52
2022/06/18 10:34:02;;;;;;;13.07;4.43;;;;;;;33.52;37.64;101526.16;5052587;28;20051;-52
2022/06/18 10:36:38;;;;;;;10.35;4.30;;;;;;;33.97;36.64;101530.19;5052441;28;20582;-52
2022/06/18 10:39:17;;;;;;;13.30;3.78;;;;;;;34.47;38.39;101528.75;5052312;28;20049;-52
2022/06/18 10:42:06;;;;;;;11.95;3.95;;;;;;;34.34;36.78;101529.03;5050738;28;20396;-50
2022/06/18 10:44:50;;;;;;;12.75;4.47;;;;;;;34.26;37.72;101527.47;5045136;28;20048;-54
2022/06/18 10:47:18;;;;;;;14.95;4.43;;;;;;;34.15;36.69;101526.44;5050560;28;20048;-54
2022/06/18 10:49:59;;;;;;;11.05;4.30;;;;;;;34.39;36.37;101526.41;5051884;28;20056;-53
2022/06/18 10:52:28;;;;;;;11.65;4.18;;;;;;;34.64;36.68;101525.22;5052189;28;20396;-55
2022/06/18 10:55:07;;;;;;;11.27;4.35;;;;;;;34.72;36.21;101526.75;5051788;28;20305;-51
2022/06/18 10:57:35;;;;;;;11.75;3.72;;;;;;;34.73;35.95;101525.66;5051769;28;20056;-51
2022/06/18 11:00:16;;;;;;;9.90;4.05;;;;;;;34.85;35.22;101524.56;5052019;28;20153;-53
2022/06/18 11:02:45;;;;;;;12.25;3.78;;;;;;;35.18;35.33;101522.91;5050035;28;20554;-48
2022/06/18 11:05:23;;;;;;;14.15;4.60;;;;;;;35.09;35.43;101515.38;5047035;28;20068;-53
2022/06/18 11:07:54;;;;;;;10.98;3.83;;;;;;;34.95;34.44;101509.41;5050529;28;20049;-49
2022/06/18 11:10:35;;;;;;;12.18;3.55;;;;;;;35.18;34.10;101516.63;5051128;28;20180;-53
2022/06/18 11:13:05;;;;;;;12.48;4.20;;;;;;;35.34;33.06;101501.28;5047587;28;20074;-52
2022/06/18 11:15:36;;;;;;;13.20;3.92;;;;;;;35.29;34.30;101507.50;5048977;28;20044;-54
2022/06/18 11:18:14;;;;;;;9.60;3.42;;;;;;;35.34;31.59;101499.41;5051902;28;20040;-55
2022/06/18 11:20:57;;;;;;;9.25;3.53;;;;;;;35.69;32.33;101500.16;5051350;28;20049;-53
2022/06/18 11:23:26;;;;;;;12.82;3.65;;;;;;;35.89;32.93;101496.88;5047489;28;20049;-54
2022/06/18 11:25:58;;;;;;;9.07;3.42;;;;;;;36.13;31.47;101493.84;5049517;28;20072;-54
2022/06/18 11:28:33;;;;;;;13.43;4.10;;;;;;;36.15;31.75;101492.53;5051878;28;20064;-52
2022/06/18 11:31:03;;;;;;;10.35;3.67;;;;;;;36.37;31.51;101488.94;5051728;28;20048;-53
2022/06/18 11:33:35;;;;;;;12.75;3.65;;;;;;;36.03;31.34;101489.09;5051210;28;20815;-51
2022/06/18 11:36:12;;;;;;;9.47;3.80;;;;;;;36.10;31.86;101478.78;5047596;28;20048;-50
2022/06/18 11:38:42;;;;;;;12.68;3.83;;;;;;;35.99;33.19;101483.31;5049421;28;20056;-50
2022/06/18 11:41:16;;;;;;;10.50;3.55;;;;;;;36.08;32.29;101485.59;5051831;28;20484;-52
2022/06/18 11:43:51;;;;;;;11.98;3.55;;;;;;;36.38;31.92;101474.19;5051508;28;20118;-51
2022/06/18 11:46:24;;;;;;;10.38;3.80;;;;;;;36.46;30.82;101481.94;5051507;28;20033;-50
2022/06/18 11:48:57;;;;;;;10.75;4.13;;;;;;;36.69;32.07;101471.72;5051614;28;20100;-49
2022/06/18 11:51:33;;;;;;;11.40;3.95;;;;;;;36.35;31.98;101471.94;5048642;28;20110;-51
2022/06/18 11:54:12;;;;;;;11.13;3.90;;;;;;;36.70;31.22;101471.44;5047609;28;20447;-48